sensor_id;sensor_type;location;lat;lon;timestamp;pressure;altitude;pressure_sealevel;temperature;humidity
60479;BME280;46321;48.398;11.754;2023-09-18T00:00:16;96222.69;;;17.56;88.84
60479;BME280;46321;48.398;11.754;2023-09-18T00:02:41;96223.13;;;17.53;88.44
60479;BME280;46321;48.398;11.754;2023-09-18T00:05:07;96221.72;;;17.50;88.55
60479;BME280;46321;48.398;11.754;2023-09-18T00:07:32;96225.44;;;17.49;88.62
60479;BME280;46321;48.398;11.754;2023-09-18T00:09:57;96225.22;;;17.50;88.30
60479;BME280;46321;48.398;11.754;2023-09-18T00:12:23;96212.91;;;17.49;88.55
60479;BME280;46321;48.398;11.754;2023-09-18T00:14:48;96213.09;;;17.48;88.89
60479;BME280;46321;48.398;11.754;2023-09-18T00:17:15;96215.66;;;17.43;88.71
60479;BME280;46321;48.398;11.754;2023-09-18T00:19:41;96210.31;;;17.43;88.52
60479;BME280;46321;48.398;11.754;2023-09-18T00:22:07;96200.19;;;17.45;88.10
60479;BME280;46321;48.398;11.754;2023-09-18T00:24:33;96196.13;;;17.42;88.18
60479;BME280;46321;48.398;11.754;2023-09-18T00:26:58;96195.53;;;17.40;87.34
60479;BME280;46321;48.398;11.754;2023-09-18T00:29:24;96195.28;;;17.42;87.13
60479;BME280;46321;48.398;11.754;2023-09-18T00:31:49;96184.44;;;17.36;87.37
60479;BME280;46321;48.398;11.754;2023-09-18T00:34:14;96186.09;;;17.37;86.80
60479;BME280;46321;48.398;11.754;2023-09-18T00:36:39;96187.59;;;17.33;86.39
60479;BME280;46321;48.398;11.754;2023-09-18T00:39:05;96177.56;;;17.28;86.71
60479;BME280;46321;48.398;11.754;2023-09-18T00:41:30;96178.47;;;17.22;87.42
60479;BME280;46321;48.398;11.754;2023-09-18T00:43:55;96174.16;;;17.21;87.48
60479;BME280;46321;48.398;11.754;2023-09-18T00:46:21;96168.88;;;17.14;87.70
60479;BME280;46321;48.398;11.754;2023-09-18T00:48:48;96172.00;;;17.11;87.78
60479;BME280;46321;48.398;11.754;2023-09-18T00:51:13;96169.75;;;17.08;87.16
60479;BME280;46321;48.398;11.754;2023-09-18T00:53:43;96162.41;;;17.03;88.13
60479;BME280;46321;48.398;11.754;2023-09-18T00:56:10;96154.41;;;17.03;87.83
60479;BME280;46321;48.398;11.754;2023-09-18T00:58:36;96155.22;;;17.04;87.88
60479;BME280;46321;48.398;11.754;2023-09-18T01:01:01;96143.94;;;17.02;87.63
60479;BME280;46321;48.398;11.754;2023-09-18T01:03:26;96146.47;;;16.97;87.79
60479;BME280;46321;48.398;11.754;2023-09-18T01:05:53;96147.50;;;16.96;88.16
60479;BME280;46321;48.398;11.754;2023-09-18T01:08:18;96147.50;;;16.96;87.96
60479;BME280;46321;48.398;11.754;2023-09-18T01:10:58;96143.78;;;16.97;88.25
60479;BME280;46321;48.398;11.754;2023-09-18T01:13:35;96137.84;;;16.94;88.55
60479;BME280;46321;48.398;11.754;2023-09-18T01:16:32;96137.25;;;16.92;88.46
60479;BME280;46321;48.398;11.754;2023-09-18T01:18:59;96136.75;;;16.83;88.16
60479;BME280;46321;48.398;11.754;2023-09-18T01:21:28;96128.38;;;16.80;87.98
60479;BME280;46321;48.398;11.754;2023-09-18T01:23:53;96122.88;;;16.75;88.60
60479;BME280;46321;48.398;11.754;2023-09-18T01:26:18;96124.13;;;16.72;88.53
60479;BME280;46321;48.398;11.754;2023-09-18T01:28:43;96132.75;;;16.74;88.13
60479;BME280;46321;48.398;11.754;2023-09-18T01:31:09;96130.75;;;16.69;89.15
60479;BME280;46321;48.398;11.754;2023-09-18T01:33:35;96127.53;;;16.60;89.51
60479;BME280;46321;48.398;11.754;2023-09-18T01:36:03;96122.22;;;16.60;89.80
60479;BME280;46321;48.398;11.754;2023-09-18T01:38:29;96123.03;;;16.61;89.50
60479;BME280;46321;48.398;11.754;2023-09-18T01:40:55;96125.94;;;16.59;89.47
60479;BME280;46321;48.398;11.754;2023-09-18T01:43:20;96125.34;;;16.57;89.21
60479;BME280;46321;48.398;11.754;2023-09-18T01:45:47;96129.28;;;16.55;89.17
60479;BME280;46321;48.398;11.754;2023-09-18T01:48:13;96127.03;;;16.52;89.44
60479;BME280;46321;48.398;11.754;2023-09-18T01:50:38;96134.03;;;16.53;89.22
60479;BME280;46321;48.398;11.754;2023-09-18T01:53:05;96139.13;;;16.54;89.90
60479;BME280;46321;48.398;11.754;2023-09-18T01:55:31;96136.22;;;16.56;89.92
60479;BME280;46321;48.398;11.754;2023-09-18T01:57:58;96139.94;;;16.55;89.56
60479;BME280;46321;48.398;11.754;2023-09-18T02:00:23;96139.56;;;16.51;89.58
60479;BME280;46321;48.398;11.754;2023-09-18T02:02:49;96135.13;;;16.45;90.38
60479;BME280;46321;48.398;11.754;2023-09-18T02:05:14;96130.81;;;16.44;90.50
60479;BME280;46321;48.398;11.754;2023-09-18T02:07:39;96115.91;;;16.36;90.82
60479;BME280;46321;48.398;11.754;2023-09-18T02:10:05;96107.13;;;16.29;91.45
60479;BME280;46321;48.398;11.754;2023-09-18T02:12:30;96101.00;;;16.28;91.58
60479;BME280;46321;48.398;11.754;2023-09-18T02:14:56;96101.41;;;16.25;91.92
60479;BME280;46321;48.398;11.754;2023-09-18T02:17:23;96105.75;;;16.26;91.83
60479;BME280;46321;48.398;11.754;2023-09-18T02:19:48;96108.84;;;16.23;92.26
60479;BME280;46321;48.398;11.754;2023-09-18T02:22:14;96125.47;;;16.25;91.51
60479;BME280;46321;48.398;11.754;2023-09-18T02:24:39;96106.53;;;16.27;91.33
60479;BME280;46321;48.398;11.754;2023-09-18T02:27:04;96102.91;;;16.21;90.96
60479;BME280;46321;48.398;11.754;2023-09-18T02:29:30;96100.47;;;16.19;90.64
60479;BME280;46321;48.398;11.754;2023-09-18T02:31:55;96108.47;;;16.19;90.34
60479;BME280;46321;48.398;11.754;2023-09-18T02:34:21;96103.56;;;16.16;90.95
60479;BME280;46321;48.398;11.754;2023-09-18T02:36:46;96108.31;;;16.14;90.92
60479;BME280;46321;48.398;11.754;2023-09-18T02:39:12;96100.13;;;16.09;91.18
60479;BME280;46321;48.398;11.754;2023-09-18T02:41:38;96090.31;;;16.02;92.09
60479;BME280;46321;48.398;11.754;2023-09-18T02:44:03;96077.59;;;16.05;91.98
60479;BME280;46321;48.398;11.754;2023-09-18T02:46:29;96074.25;;;16.09;92.03
60479;BME280;46321;48.398;11.754;2023-09-18T02:48:54;96072.66;;;16.08;91.73
60479;BME280;46321;48.398;11.754;2023-09-18T02:51:20;96079.84;;;16.08;91.64
60479;BME280;46321;48.398;11.754;2023-09-18T02:53:45;96070.81;;;16.02;92.50
60479;BME280;46321;48.398;11.754;2023-09-18T02:56:10;96066.53;;;16.01;92.70
60479;BME280;46321;48.398;11.754;2023-09-18T02:58:36;96051.31;;;16.01;92.38
60479;BME280;46321;48.398;11.754;2023-09-18T03:01:01;96057.69;;;16.00;92.07
60479;BME280;46321;48.398;11.754;2023-09-18T03:03:29;96063.25;;;15.99;92.85
60479;BME280;46321;48.398;11.754;2023-09-18T03:06:03;96063.69;;;15.96;93.78
60479;BME280;46321;48.398;11.754;2023-09-18T03:08:29;96058.81;;;15.93;94.43
60479;BME280;46321;48.398;11.754;2023-09-18T03:10:54;96062.88;;;15.95;94.25
60479;BME280;46321;48.398;11.754;2023-09-18T03:13:21;96061.69;;;15.91;94.31
60479;BME280;46321;48.398;11.754;2023-09-18T03:15:46;96054.72;;;15.90;94.11
60479;BME280;46321;48.398;11.754;2023-09-18T03:18:12;96068.25;;;15.88;93.70
60479;BME280;46321;48.398;11.754;2023-09-18T03:20:38;96071.56;;;15.90;93.32
60479;BME280;46321;48.398;11.754;2023-09-18T03:23:03;96078.56;;;15.85;93.70
60479;BME280;46321;48.398;11.754;2023-09-18T03:25:29;96073.47;;;15.83;93.63
60479;BME280;46321;48.398;11.754;2023-09-18T03:27:56;96057.28;;;15.78;93.06
60479;BME280;46321;48.398;11.754;2023-09-18T03:30:22;96053.19;;;15.75;93.68
60479;BME280;46321;48.398;11.754;2023-09-18T03:32:49;96051.94;;;15.78;93.62
60479;BME280;46321;48.398;11.754;2023-09-18T03:35:14;96045.66;;;15.72;93.93
60479;BME280;46321;48.398;11.754;2023-09-18T03:37:48;96041.34;;;15.71;93.31
60479;BME280;46321;48.398;11.754;2023-09-18T03:40:14;96038.66;;;15.71;93.41
60479;BME280;46321;48.398;11.754;2023-09-18T03:42:40;96039.50;;;15.72;93.50
60479;BME280;46321;48.398;11.754;2023-09-18T03:45:06;96045.66;;;15.72;93.07
60479;BME280;46321;48.398;11.754;2023-09-18T03:47:34;96047.84;;;15.75;93.45
60479;BME280;46321;48.398;11.754;2023-09-18T03:50:00;96031.06;;;15.75;92.26
60479;BME280;46321;48.398;11.754;2023-09-18T03:52:25;96017.91;;;15.73;92.41
60479;BME280;46321;48.398;11.754;2023-09-18T03:54:50;96012.59;;;15.73;93.50
60479;BME280;46321;48.398;11.754;2023-09-18T03:57:16;96020.22;;;15.70;94.22
60479;BME280;46321;48.398;11.754;2023-09-18T03:59:41;96015.13;;;15.68;94.64
60479;BME280;46321;48.398;11.754;2023-09-18T04:02:06;96020.88;;;15.65;94.36
60479;BME280;46321;48.398;11.754;2023-09-18T04:04:32;96013.91;;;15.64;94.08
60479;BME280;46321;48.398;11.754;2023-09-18T04:06:57;96017.00;;;15.61;94.32
60479;BME280;46321;48.398;11.754;2023-09-18T04:09:23;96013.31;;;15.62;94.04
60479;BME280;46321;48.398;11.754;2023-09-18T04:11:48;96013.53;;;15.60;93.69
60479;BME280;46321;48.398;11.754;2023-09-18T04:14:13;96005.34;;;15.55;93.57
60479;BME280;46321;48.398;11.754;2023-09-18T04:16:39;95991.06;;;15.49;93.39
60479;BME280;46321;48.398;11.754;2023-09-18T04:19:06;95990.84;;;15.51;93.22
60479;BME280;46321;48.398;11.754;2023-09-18T04:21:32;95991.88;;;15.50;93.33
60479;BME280;46321;48.398;11.754;2023-09-18T04:23:57;95979.56;;;15.49;93.32
60479;BME280;46321;48.398;11.754;2023-09-18T04:26:27;95986.75;;;15.48;93.13
60479;BME280;46321;48.398;11.754;2023-09-18T04:28:56;95982.47;;;15.47;93.18
60479;BME280;46321;48.398;11.754;2023-09-18T04:31:22;95980.81;;;15.46;93.48
60479;BME280;46321;48.398;11.754;2023-09-18T04:33:47;95986.00;;;15.41;94.82
60479;BME280;46321;48.398;11.754;2023-09-18T04:36:13;95987.19;;;15.45;95.43
60479;BME280;46321;48.398;11.754;2023-09-18T04:38:38;95986.16;;;15.46;94.98
60479;BME280;46321;48.398;11.754;2023-09-18T04:41:04;95983.34;;;15.41;95.61
60479;BME280;46321;48.398;11.754;2023-09-18T04:43:29;95985.84;;;15.36;96.95
60479;BME280;46321;48.398;11.754;2023-09-18T04:45:55;95977.66;;;15.30;96.91
60479;BME280;46321;48.398;11.754;2023-09-18T04:48:20;95978.50;;;15.31;96.54
60479;BME280;46321;48.398;11.754;2023-09-18T04:50:46;95968.28;;;15.28;96.24
60479;BME280;46321;48.398;11.754;2023-09-18T04:53:12;95974.63;;;15.27;95.68
60479;BME280;46321;48.398;11.754;2023-09-18T04:55:37;95986.13;;;15.27;94.94
60479;BME280;46321;48.398;11.754;2023-09-18T04:58:03;95980.34;;;15.30;94.67
60479;BME280;46321;48.398;11.754;2023-09-18T05:00:30;95986.13;;;15.27;94.60
60479;BME280;46321;48.398;11.754;2023-09-18T05:02:57;95978.19;;;15.20;94.96
60479;BME280;46321;48.398;11.754;2023-09-18T05:05:25;95981.66;;;15.21;94.76
60479;BME280;46321;48.398;11.754;2023-09-18T05:07:50;95971.38;;;15.25;94.74
60479;BME280;46321;48.398;11.754;2023-09-18T05:10:16;95977.31;;;15.27;95.31
60479;BME280;46321;48.398;11.754;2023-09-18T05:12:42;95982.22;;;15.30;95.36
60479;BME280;46321;48.398;11.754;2023-09-18T05:15:08;95976.19;;;15.34;94.77
60479;BME280;46321;48.398;11.754;2023-09-18T05:17:45;95982.56;;;15.33;94.61
60479;BME280;46321;48.398;11.754;2023-09-18T05:20:17;95974.34;;;15.35;95.24
60479;BME280;46321;48.398;11.754;2023-09-18T05:22:42;95980.88;;;15.39;94.70
60479;BME280;46321;48.398;11.754;2023-09-18T05:25:09;95987.78;;;15.47;93.80
60479;BME280;46321;48.398;11.754;2023-09-18T05:27:35;95983.22;;;15.54;93.44
60479;BME280;46321;48.398;11.754;2023-09-18T05:30:01;95981.88;;;15.64;93.06
60479;BME280;46321;48.398;11.754;2023-09-18T05:32:26;95990.81;;;15.76;92.45
60479;BME280;46321;48.398;11.754;2023-09-18T05:34:51;95994.16;;;15.90;92.18
60479;BME280;46321;48.398;11.754;2023-09-18T05:37:17;96005.94;;;16.01;92.44
60479;BME280;46321;48.398;11.754;2023-09-18T05:39:42;96011.03;;;16.10;92.32
60479;BME280;46321;48.398;11.754;2023-09-18T05:42:07;95997.53;;;16.23;91.68
60479;BME280;46321;48.398;11.754;2023-09-18T05:44:32;96002.78;;;16.30;91.79
60479;BME280;46321;48.398;11.754;2023-09-18T05:46:58;95994.69;;;16.37;91.62
60479;BME280;46321;48.398;11.754;2023-09-18T05:49:23;95986.81;;;16.42;92.66
60479;BME280;46321;48.398;11.754;2023-09-18T05:51:49;95987.00;;;16.59;92.33
60479;BME280;46321;48.398;11.754;2023-09-18T05:54:14;95987.41;;;16.75;91.55
60479;BME280;46321;48.398;11.754;2023-09-18T05:56:39;95984.47;;;16.96;90.62
60479;BME280;46321;48.398;11.754;2023-09-18T05:59:04;95987.06;;;17.14;90.06
60479;BME280;46321;48.398;11.754;2023-09-18T06:01:31;95994.19;;;17.33;88.26
60479;BME280;46321;48.398;11.754;2023-09-18T06:03:57;95995.97;;;17.51;87.96
60479;BME280;46321;48.398;11.754;2023-09-18T06:06:23;95997.81;;;17.74;87.49
60479;BME280;46321;48.398;11.754;2023-09-18T06:08:50;95991.25;;;17.94;86.39
60479;BME280;46321;48.398;11.754;2023-09-18T06:11:15;95987.78;;;18.18;85.31
60479;BME280;46321;48.398;11.754;2023-09-18T06:13:40;95986.09;;;18.41;83.37
60479;BME280;46321;48.398;11.754;2023-09-18T06:16:05;95980.06;;;18.63;81.83
60479;BME280;46321;48.398;11.754;2023-09-18T06:18:33;95971.72;;;18.76;80.01
60479;BME280;46321;48.398;11.754;2023-09-18T06:21:00;95975.25;;;18.94;79.90
60479;BME280;46321;48.398;11.754;2023-09-18T06:23:25;95980.75;;;19.17;78.71
60479;BME280;46321;48.398;11.754;2023-09-18T06:25:51;95984.97;;;19.30;77.07
60479;BME280;46321;48.398;11.754;2023-09-18T06:28:21;95980.34;;;19.60;76.99
60479;BME280;46321;48.398;11.754;2023-09-18T06:30:46;95976.19;;;19.69;73.74
60479;BME280;46321;48.398;11.754;2023-09-18T06:33:11;95973.50;;;19.69;74.19
60479;BME280;46321;48.398;11.754;2023-09-18T06:35:37;95967.78;;;19.65;73.60
60479;BME280;46321;48.398;11.754;2023-09-18T06:38:03;95962.06;;;19.79;73.33
60479;BME280;46321;48.398;11.754;2023-09-18T06:40:30;95959.47;;;19.84;72.53
60479;BME280;46321;48.398;11.754;2023-09-18T06:42:59;95961.19;;;19.73;72.13
60479;BME280;46321;48.398;11.754;2023-09-18T06:45:25;95972.50;;;19.75;72.12
60479;BME280;46321;48.398;11.754;2023-09-18T06:47:50;95976.22;;;19.74;71.93
60479;BME280;46321;48.398;11.754;2023-09-18T06:50:16;95983.94;;;19.88;72.33
60479;BME280;46321;48.398;11.754;2023-09-18T06:52:43;95991.38;;;20.03;71.47
60479;BME280;46321;48.398;11.754;2023-09-18T06:55:09;95999.75;;;20.24;70.93
60479;BME280;46321;48.398;11.754;2023-09-18T06:57:34;95992.16;;;20.43;71.37
60479;BME280;46321;48.398;11.754;2023-09-18T06:59:59;95994.78;;;20.61;71.72
60479;BME280;46321;48.398;11.754;2023-09-18T07:02:24;96002.75;;;20.78;71.05
60479;BME280;46321;48.398;11.754;2023-09-18T07:04:50;95993.19;;;20.92;69.97
60479;BME280;46321;48.398;11.754;2023-09-18T07:07:16;96007.91;;;21.07;69.58
60479;BME280;46321;48.398;11.754;2023-09-18T07:09:42;96006.03;;;21.08;68.27
60479;BME280;46321;48.398;11.754;2023-09-18T07:12:10;96009.78;;;21.07;69.01
60479;BME280;46321;48.398;11.754;2023-09-18T07:14:36;96015.47;;;21.10;68.95
60479;BME280;46321;48.398;11.754;2023-09-18T07:17:03;96017.69;;;21.19;67.87
60479;BME280;46321;48.398;11.754;2023-09-18T07:19:29;96028.06;;;21.37;67.81
60479;BME280;46321;48.398;11.754;2023-09-18T07:21:54;96033.69;;;21.69;65.88
60479;BME280;46321;48.398;11.754;2023-09-18T07:24:19;96037.53;;;22.16;64.13
60479;BME280;46321;48.398;11.754;2023-09-18T07:26:47;96030.69;;;22.57;63.43
60479;BME280;46321;48.398;11.754;2023-09-18T07:29:13;96038.38;;;22.92;60.50
60479;BME280;46321;48.398;11.754;2023-09-18T07:31:40;96038.97;;;23.30;59.23
60479;BME280;46321;48.398;11.754;2023-09-18T07:34:06;96051.16;;;23.85;59.75
60479;BME280;46321;48.398;11.754;2023-09-18T07:36:31;96043.19;;;24.41;57.17
60479;BME280;46321;48.398;11.754;2023-09-18T07:38:56;96038.69;;;24.82;54.61
60479;BME280;46321;48.398;11.754;2023-09-18T07:41:22;96039.00;;;25.26;53.94
60479;BME280;46321;48.398;11.754;2023-09-18T07:43:47;96031.72;;;25.91;53.66
60479;BME280;46321;48.398;11.754;2023-09-18T07:46:13;96027.53;;;26.53;51.36
60479;BME280;46321;48.398;11.754;2023-09-18T07:48:38;96038.56;;;27.01;49.33
60479;BME280;46321;48.398;11.754;2023-09-18T07:51:03;96033.41;;;26.99;49.09
60479;BME280;46321;48.398;11.754;2023-09-18T07:53:29;96028.44;;;27.07;49.33
60479;BME280;46321;48.398;11.754;2023-09-18T07:55:58;96027.47;;;26.78;49.05
60479;BME280;46321;48.398;11.754;2023-09-18T07:58:24;96025.94;;;26.91;48.20
60479;BME280;46321;48.398;11.754;2023-09-18T08:00:53;96029.84;;;27.24;47.60
60479;BME280;46321;48.398;11.754;2023-09-18T08:03:19;96030.06;;;27.94;45.98
60479;BME280;46321;48.398;11.754;2023-09-18T08:05:44;96030.00;;;28.28;44.07
60479;BME280;46321;48.398;11.754;2023-09-18T08:08:10;96026.78;;;28.40;43.52
60479;BME280;46321;48.398;11.754;2023-09-18T08:10:36;96031.84;;;28.61;44.20
60479;BME280;46321;48.398;11.754;2023-09-18T08:13:02;96026.03;;;29.28;43.43
60479;BME280;46321;48.398;11.754;2023-09-18T08:15:28;96027.84;;;30.10;41.74
60479;BME280;46321;48.398;11.754;2023-09-18T08:17:54;96035.13;;;30.82;39.20
60479;BME280;46321;48.398;11.754;2023-09-18T08:20:19;96037.44;;;31.25;38.53
60479;BME280;46321;48.398;11.754;2023-09-18T08:22:45;96024.22;;;31.45;38.37
60479;BME280;46321;48.398;11.754;2023-09-18T08:25:12;96039.00;;;31.61;38.72
60479;BME280;46321;48.398;11.754;2023-09-18T08:27:38;96042.25;;;31.19;38.42
60479;BME280;46321;48.398;11.754;2023-09-18T08:30:09;96050.28;;;30.97;39.74
60479;BME280;46321;48.398;11.754;2023-09-18T08:32:39;96053.50;;;31.08;39.14
60479;BME280;46321;48.398;11.754;2023-09-18T08:35:05;96054.94;;;31.50;38.26
60479;BME280;46321;48.398;11.754;2023-09-18T08:37:30;96057.78;;;31.90;37.47
60479;BME280;46321;48.398;11.754;2023-09-18T08:39:56;96050.41;;;32.38;37.83
60479;BME280;46321;48.398;11.754;2023-09-18T08:42:21;96052.97;;;32.74;36.77
60479;BME280;46321;48.398;11.754;2023-09-18T08:44:49;96059.63;;;33.16;35.41
60479;BME280;46321;48.398;11.754;2023-09-18T08:47:17;96064.38;;;33.49;35.32
60479;BME280;46321;48.398;11.754;2023-09-18T08:49:44;96068.22;;;34.03;34.10
60479;BME280;46321;48.398;11.754;2023-09-18T08:52:11;96062.34;;;34.89;32.92
60479;BME280;46321;48.398;11.754;2023-09-18T08:54:37;96065.16;;;35.05;32.51
60479;BME280;46321;48.398;11.754;2023-09-18T08:57:03;96068.81;;;35.51;32.09
60479;BME280;46321;48.398;11.754;2023-09-18T08:59:33;96073.91;;;35.65;31.98
60479;BME280;46321;48.398;11.754;2023-09-18T09:01:59;96068.38;;;37.07;30.13
60479;BME280;46321;48.398;11.754;2023-09-18T09:04:25;96073.13;;;37.46;28.87
60479;BME280;46321;48.398;11.754;2023-09-18T09:06:51;96068.44;;;37.71;28.90
60479;BME280;46321;48.398;11.754;2023-09-18T09:09:16;96073.50;;;37.45;29.15
60479;BME280;46321;48.398;11.754;2023-09-18T09:11:50;96064.53;;;38.62;28.12
60479;BME280;46321;48.398;11.754;2023-09-18T09:14:16;96070.75;;;39.41;26.60
60479;BME280;46321;48.398;11.754;2023-09-18T09:16:51;96066.16;;;38.67;26.62
60479;BME280;46321;48.398;11.754;2023-09-18T09:19:27;96073.75;;;37.99;27.70
60479;BME280;46321;48.398;11.754;2023-09-18T09:21:53;96073.94;;;36.26;29.58
60479;BME280;46321;48.398;11.754;2023-09-18T09:24:36;96075.16;;;34.47;31.93
60479;BME280;46321;48.398;11.754;2023-09-18T09:27:02;96074.63;;;33.40;33.50
60479;BME280;46321;48.398;11.754;2023-09-18T09:29:28;96078.38;;;31.87;36.44
60479;BME280;46321;48.398;11.754;2023-09-18T09:31:55;96084.69;;;31.43;36.54
60479;BME280;46321;48.398;11.754;2023-09-18T09:34:25;96073.91;;;30.93;38.06
60479;BME280;46321;48.398;11.754;2023-09-18T09:36:53;96080.47;;;30.43;39.11
60479;BME280;46321;48.398;11.754;2023-09-18T09:39:19;96083.78;;;29.99;40.58
60479;BME280;46321;48.398;11.754;2023-09-18T09:41:46;96088.03;;;29.91;41.20
60479;BME280;46321;48.398;11.754;2023-09-18T09:44:13;96079.91;;;29.31;42.91
60479;BME280;46321;48.398;11.754;2023-09-18T09:46:45;96083.09;;;28.96;43.09
60479;BME280;46321;48.398;11.754;2023-09-18T09:49:10;96077.97;;;28.94;42.80
60479;BME280;46321;48.398;11.754;2023-09-18T09:51:36;96078.56;;;28.77;43.62
60479;BME280;46321;48.398;11.754;2023-09-18T09:54:01;96076.38;;;28.51;44.95
60479;BME280;46321;48.398;11.754;2023-09-18T09:56:49;96091.47;;;28.29;44.08
60479;BME280;46321;48.398;11.754;2023-09-18T09:59:16;96094.34;;;28.04;45.29
60479;BME280;46321;48.398;11.754;2023-09-18T10:01:46;96094.66;;;27.50;46.30
60479;BME280;46321;48.398;11.754;2023-09-18T10:04:16;96098.38;;;27.54;46.71
60479;BME280;46321;48.398;11.754;2023-09-18T10:06:44;96091.78;;;27.60;46.84
60479;BME280;46321;48.398;11.754;2023-09-18T10:09:13;96096.94;;;27.62;46.78
60479;BME280;46321;48.398;11.754;2023-09-18T10:11:41;96103.63;;;27.50;47.21
60479;BME280;46321;48.398;11.754;2023-09-18T10:14:16;96100.97;;;27.45;47.42
60479;BME280;46321;48.398;11.754;2023-09-18T10:16:45;96115.66;;;27.25;48.63
60479;BME280;46321;48.398;11.754;2023-09-18T10:24:33;96106.47;;;27.59;48.18
60479;BME280;46321;48.398;11.754;2023-09-18T10:27:01;96098.63;;;27.58;48.04
60479;BME280;46321;48.398;11.754;2023-09-18T10:29:31;96107.03;;;27.75;47.48
60479;BME280;46321;48.398;11.754;2023-09-18T10:31:57;96105.31;;;27.99;46.98
60479;BME280;46321;48.398;11.754;2023-09-18T10:34:23;96112.47;;;27.75;47.83
60479;BME280;46321;48.398;11.754;2023-09-18T10:36:51;96113.16;;;27.48;48.08
60479;BME280;46321;48.398;11.754;2023-09-18T10:39:17;96113.31;;;27.37;48.72
60479;BME280;46321;48.398;11.754;2023-09-18T10:41:51;96115.84;;;27.09;49.05
60479;BME280;46321;48.398;11.754;2023-09-18T10:44:18;96115.66;;;27.25;48.66
60479;BME280;46321;48.398;11.754;2023-09-18T10:46:48;96115.94;;;27.04;48.95
60479;BME280;46321;48.398;11.754;2023-09-18T10:49:15;96118.94;;;26.78;50.43
60479;BME280;46321;48.398;11.754;2023-09-18T10:51:40;96123.22;;;26.59;52.00
60479;BME280;46321;48.398;11.754;2023-09-18T10:54:11;96120.41;;;26.40;52.44
60479;BME280;46321;48.398;11.754;2023-09-18T10:56:37;96129.72;;;26.34;52.56
60479;BME280;46321;48.398;11.754;2023-09-18T10:59:06;96138.63;;;26.10;53.32
60479;BME280;46321;48.398;11.754;2023-09-18T11:01:32;96134.59;;;26.02;53.36
60479;BME280;46321;48.398;11.754;2023-09-18T11:04:07;96132.69;;;26.07;53.39
60479;BME280;46321;48.398;11.754;2023-09-18T11:09:28;96130.28;;;26.01;53.60
60479;BME280;46321;48.398;11.754;2023-09-18T11:12:02;96136.91;;;25.89;53.98
60479;BME280;46321;48.398;11.754;2023-09-18T11:14:48;96141.63;;;25.68;54.82
60479;BME280;46321;48.398;11.754;2023-09-18T11:17:40;96141.66;;;26.03;53.01
60479;BME280;46321;48.398;11.754;2023-09-18T11:20:16;96136.94;;;26.14;53.55
60479;BME280;46321;48.398;11.754;2023-09-18T11:25:34;96139.06;;;26.17;52.57
60479;BME280;46321;48.398;11.754;2023-09-18T11:28:01;96144.84;;;26.10;52.98
60479;BME280;46321;48.398;11.754;2023-09-18T11:30:28;96149.59;;;25.94;52.97
60479;BME280;46321;48.398;11.754;2023-09-18T11:32:54;96148.97;;;25.62;53.09
60479;BME280;46321;48.398;11.754;2023-09-18T11:35:20;96149.59;;;25.54;53.30
60479;BME280;46321;48.398;11.754;2023-09-18T11:37:46;96142.69;;;25.72;52.94
60479;BME280;46321;48.398;11.754;2023-09-18T11:40:30;96152.63;;;25.87;52.79
60479;BME280;46321;48.398;11.754;2023-09-18T11:43:21;96149.59;;;25.94;51.57
60479;BME280;46321;48.398;11.754;2023-09-18T11:45:59;96150.72;;;25.88;53.11
60479;BME280;46321;48.398;11.754;2023-09-18T11:48:27;96148.75;;;25.99;51.36
60479;BME280;46321;48.398;11.754;2023-09-18T11:50:56;96144.75;;;26.21;51.42
60479;BME280;46321;48.398;11.754;2023-09-18T11:53:23;96153.59;;;26.02;50.65
60479;BME280;46321;48.398;11.754;2023-09-18T11:55:49;96156.63;;;25.95;50.83
60479;BME280;46321;48.398;11.754;2023-09-18T11:58:14;96156.94;;;25.88;50.77
60479;BME280;46321;48.398;11.754;2023-09-18T12:00:40;96159.25;;;25.65;51.41
60479;BME280;46321;48.398;11.754;2023-09-18T12:03:21;96161.00;;;25.45;52.31
60479;BME280;46321;48.398;11.754;2023-09-18T12:05:59;96164.81;;;25.44;52.15
60479;BME280;46321;48.398;11.754;2023-09-18T12:08:26;96175.56;;;24.99;52.01
60479;BME280;46321;48.398;11.754;2023-09-18T12:10:55;96172.34;;;24.86;51.59
60479;BME280;46321;48.398;11.754;2023-09-18T12:13:21;96176.72;;;24.72;51.13
60479;BME280;46321;48.398;11.754;2023-09-18T12:15:48;96188.63;;;24.70;50.96
60479;BME280;46321;48.398;11.754;2023-09-18T12:18:15;96183.22;;;24.60;50.37
60479;BME280;46321;48.398;11.754;2023-09-18T12:20:49;96199.22;;;24.35;50.87
60479;BME280;46321;48.398;11.754;2023-09-18T12:23:15;96195.72;;;24.19;51.38
60479;BME280;46321;48.398;11.754;2023-09-18T12:25:42;96193.00;;;24.04;51.86
60479;BME280;46321;48.398;11.754;2023-09-18T12:28:10;96201.66;;;23.90;52.75
60479;BME280;46321;48.398;11.754;2023-09-18T12:30:36;96214.59;;;23.93;53.57
60479;BME280;46321;48.398;11.754;2023-09-18T12:33:02;96213.47;;;23.68;54.91
60479;BME280;46321;48.398;11.754;2023-09-18T12:35:29;96225.13;;;23.74;55.16
60479;BME280;46321;48.398;11.754;2023-09-18T12:37:59;96239.81;;;23.34;56.71
60479;BME280;46321;48.398;11.754;2023-09-18T12:40:30;96240.84;;;23.18;57.03
60479;BME280;46321;48.398;11.754;2023-09-18T12:42:58;96251.03;;;23.05;57.77
60479;BME280;46321;48.398;11.754;2023-09-18T12:45:25;96237.50;;;22.95;57.84
60479;BME280;46321;48.398;11.754;2023-09-18T12:47:51;96244.13;;;22.76;57.48
60479;BME280;46321;48.398;11.754;2023-09-18T12:50:17;96243.00;;;22.29;59.39
60479;BME280;46321;48.398;11.754;2023-09-18T12:52:44;96250.38;;;22.44;58.86
60479;BME280;46321;48.398;11.754;2023-09-18T12:55:21;96259.06;;;22.18;59.76
60479;BME280;46321;48.398;11.754;2023-09-18T12:57:46;96256.22;;;22.03;59.82
60479;BME280;46321;48.398;11.754;2023-09-18T13:00:15;96261.00;;;21.95;59.92